Time;durP1;ratioP1;P1;durP2;ratioP2;P2;SDS_P1;SDS_P2;PMS_P1;PMS_P2;Temp;Humidity;BMP_temperature;BMP_pressure;BME280_temperature;BME280_humidity;BME280_pressure;Samples;Min_cycle;Max_cycle;Signal;HPM_P1;HPM_P2
2021/08/15 00:01:33;;;;;;;1.20;0.50;;;21.00;99.90;;;;;;5017772;28;20186;-84
2021/08/15 00:03:59;;;;;;;0.30;0.30;;;21.00;99.90;;;;;;5033075;28;20186;-84
2021/08/15 00:06:24;;;;;;;0.43;0.43;;;20.70;99.90;;;;;;5035248;28;20178;-83
2021/08/15 00:08:50;;;;;;;0.47;0.47;;;20.50;99.90;;;;;;5033335;28;20181;-84
2021/08/15 00:11:15;;;;;;;0.40;0.40;;;20.20;99.90;;;;;;5017249;28;20213;-85
2021/08/15 00:13:41;;;;;;;0.33;0.33;;;19.90;99.90;;;;;;5014998;28;20221;-84
2021/08/15 00:16:06;;;;;;;0.30;0.30;;;20.10;99.90;;;;;;5033689;28;20194;-83
2021/08/15 00:18:32;;;;;;;0.30;0.30;;;20.00;99.90;;;;;;5033477;28;20190;-84
2021/08/15 00:20:58;;;;;;;0.30;0.30;;;20.10;99.90;;;;;;5033092;28;20202;-84
2021/08/15 00:23:23;;;;;;;0.57;0.47;;;20.20;99.90;;;;;;5015278;28;20310;-84
2021/08/15 00:25:49;;;;;;;0.23;0.23;;;20.30;99.90;;;;;;5032675;28;20238;-83
2021/08/15 00:28:14;;;;;;;0.20;0.20;;;20.40;99.90;;;;;;5015983;28;20182;-84
2021/08/15 00:30:40;;;;;;;1.50;0.50;;;20.50;99.90;;;;;;5033047;28;20559;-84
2021/08/15 00:33:06;;;;;;;0.10;0.10;;;20.40;99.90;;;;;;5033860;28;20252;-84
2021/08/15 00:35:32;;;;;;;0.40;0.40;;;20.40;99.90;;;;;;5015791;28;20197;-84
2021/08/15 00:37:57;;;;;;;0.70;0.60;;;20.40;99.90;;;;;;5016247;28;20553;-83
2021/08/15 00:40:23;;;;;;;0.30;0.20;;;20.40;99.90;;;;;;5009113;28;20186;-82
2021/08/15 00:42:49;;;;;;;0.30;0.30;;;20.40;99.90;;;;;;5016323;28;20198;-84
2021/08/15 00:45:15;;;;;;;0.20;0.20;;;20.30;99.90;;;;;;5015815;28;20229;-84
2021/08/15 00:47:40;;;;;;;0.40;0.40;;;20.20;99.90;;;;;;5013968;28;20179;-84
2021/08/15 00:50:06;;;;;;;1.23;0.40;;;20.10;99.90;;;;;;5015504;28;20627;-84
2021/08/15 00:52:32;;;;;;;0.20;0.20;;;20.20;99.90;;;;;;5033983;28;20296;-83
2021/08/15 00:54:59;;;;;;;0.53;0.20;;;20.10;99.90;;;;;;5015072;28;20186;-82
2021/08/15 00:57:28;;;;;;;1.17;0.63;;;20.00;99.90;;;;;;5015803;28;20230;-84
2021/08/15 00:59:53;;;;;;;0.37;0.37;;;19.70;99.90;;;;;;5032368;28;20190;-84
2021/08/15 01:02:19;;;;;;;2.80;1.73;;;19.70;99.90;;;;;;5015441;28;20260;-84
2021/08/15 01:04:45;;;;;;;1.57;0.67;;;19.80;99.90;;;;;;5015255;28;20224;-84
2021/08/15 01:07:11;;;;;;;0.67;0.60;;;19.80;99.90;;;;;;5014900;28;20263;-84
2021/08/15 01:09:41;;;;;;;1.00;0.47;;;19.90;99.90;;;;;;5013275;28;20204;-83
2021/08/15 01:12:07;;;;;;;0.37;0.30;;;20.00;99.90;;;;;;5011978;28;20230;-84
2021/08/15 01:14:32;;;;;;;0.97;0.80;;;20.00;99.90;;;;;;5014911;28;20284;-83
2021/08/15 01:16:58;;;;;;;0.43;0.40;;;20.00;99.90;;;;;;5015038;28;20186;-84
2021/08/15 01:19:30;;;;;;;0.30;0.30;;;19.80;99.90;;;;;;5028603;28;20190;-84
2021/08/15 01:21:57;;;;;;;0.63;0.47;;;20.00;99.90;;;;;;5014432;28;20717;-82
2021/08/15 01:24:23;;;;;;;0.37;0.37;;;20.00;99.90;;;;;;5013867;28;20225;-84
2021/08/15 01:26:50;;;;;;;0.43;0.30;;;20.10;99.90;;;;;;5015214;28;20198;-83
2021/08/15 01:29:15;;;;;;;0.30;0.30;;;20.10;99.90;;;;;;5013613;28;20187;-84
2021/08/15 01:31:41;;;;;;;1.40;1.40;;;20.10;99.90;;;;;;5010385;28;20207;-84
2021/08/15 01:34:06;;;;;;;0.50;0.50;;;20.10;99.90;;;;;;5038835;28;20673;-83
2021/08/15 01:36:32;;;;;;;0.40;0.40;;;20.00;99.90;;;;;;5033316;28;20651;-84
2021/08/15 01:38:57;;;;;;;0.40;0.40;;;19.80;99.90;;;;;;5010348;28;20205;-84
2021/08/15 01:41:23;;;;;;;0.87;0.63;;;19.70;99.90;;;;;;5014436;28;20189;-84
2021/08/15 01:43:51;;;;;;;0.77;0.77;;;19.60;99.90;;;;;;5032094;28;20187;-84
2021/08/15 01:46:18;;;;;;;0.47;0.47;;;19.50;99.90;;;;;;5032294;28;20298;-82
2021/08/15 01:48:44;;;;;;;0.80;0.80;;;19.30;99.90;;;;;;5013639;28;20189;-84
2021/08/15 01:51:10;;;;;;;0.93;0.43;;;19.40;99.90;;;;;;5011503;28;20699;-84
2021/08/15 01:53:36;;;;;;;0.70;0.30;;;19.50;99.90;;;;;;5009579;28;20293;-84
2021/08/15 01:56:02;;;;;;;0.70;0.70;;;19.40;99.90;;;;;;5031557;28;20563;-84
2021/08/15 01:58:28;;;;;;;0.20;0.20;;;19.30;99.90;;;;;;5014141;28;20677;-83
2021/08/15 02:00:53;;;;;;;0.50;0.50;;;19.20;99.90;;;;;;5014315;28;20190;-83
2021/08/15 02:03:19;;;;;;;0.50;0.50;;;19.40;99.90;;;;;;5014274;28;20284;-84
2021/08/15 02:05:44;;;;;;;0.30;0.30;;;19.40;99.90;;;;;;5014868;28;20760;-84
2021/08/15 02:08:10;;;;;;;0.77;0.60;;;19.50;99.90;;;;;;5031329;28;20183;-84
2021/08/15 02:10:37;;;;;;;1.53;0.40;;;19.60;99.90;;;;;;5014077;28;20274;-83
2021/08/15 02:13:04;;;;;;;0.70;0.70;;;19.70;99.90;;;;;;5031714;28;20234;-84
2021/08/15 02:15:31;;;;;;;0.67;0.30;;;19.60;99.90;;;;;;5014643;28;20197;-84
2021/08/15 02:17:59;;;;;;;0.57;0.57;;;19.60;99.90;;;;;;5013888;28;20188;-84
2021/08/15 02:20:26;;;;;;;0.20;0.20;;;19.60;99.90;;;;;;5014381;28;20219;-84
2021/08/15 02:22:51;;;;;;;0.47;0.47;;;19.50;99.90;;;;;;5010667;28;20246;-84
2021/08/15 02:25:19;;;;;;;1.97;0.47;;;19.40;99.90;;;;;;5013810;28;20327;-84
2021/08/15 02:27:44;;;;;;;0.70;0.70;;;19.30;99.90;;;;;;5013089;28;20609;-82
2021/08/15 02:30:12;;;;;;;0.43;0.43;;;19.20;99.90;;;;;;5015579;28;20214;-83
2021/08/15 02:32:39;;;;;;;0.27;0.23;;;19.30;99.90;;;;;;5014287;28;20198;-83
2021/08/15 02:35:05;;;;;;;1.73;0.80;;;19.40;99.90;;;;;;5014238;28;20241;-84
2021/08/15 02:37:32;;;;;;;0.80;0.60;;;19.30;99.90;;;;;;5014427;28;20194;-84
2021/08/15 02:40:01;;;;;;;0.63;0.50;;;19.00;99.90;;;;;;5012669;28;20362;-82
2021/08/15 02:42:28;;;;;;;0.30;0.30;;;19.10;99.90;;;;;;5013332;28;20214;-83
2021/08/15 02:44:53;;;;;;;0.73;0.70;;;19.10;99.90;;;;;;5032251;28;20297;-83
2021/08/15 02:47:19;;;;;;;1.37;0.50;;;19.00;99.90;;;;;;5013090;28;20270;-83
2021/08/15 02:49:45;;;;;;;0.30;0.30;;;18.80;99.90;;;;;;5032386;28;20634;-82
2021/08/15 02:52:10;;;;;;;0.20;0.20;;;18.80;99.90;;;;;;5011964;28;20202;-83
2021/08/15 02:54:36;;;;;;;2.00;1.90;;;18.90;99.90;;;;;;5032041;28;20726;-83
2021/08/15 02:57:03;;;;;;;0.43;0.43;;;18.90;99.90;;;;;;5030494;28;20556;-83
2021/08/15 02:59:29;;;;;;;0.57;0.57;;;19.00;99.90;;;;;;5014673;28;20190;-83
2021/08/15 03:01:54;;;;;;;0.67;0.37;;;18.90;99.90;;;;;;5012444;28;20763;-83
2021/08/15 03:04:20;;;;;;;0.13;0.13;;;18.80;99.90;;;;;;5012481;28;20560;-84
2021/08/15 03:06:45;;;;;;;0.37;0.37;;;18.90;99.90;;;;;;5029472;28;20654;-82
2021/08/15 03:09:11;;;;;;;0.30;0.30;;;18.80;99.90;;;;;;5005700;28;20281;-84
2021/08/15 03:11:37;;;;;;;0.37;0.20;;;18.80;99.90;;;;;;5022827;28;20202;-84
2021/08/15 03:14:02;;;;;;;1.00;0.40;;;18.70;99.90;;;;;;5030451;28;20186;-84
2021/08/15 03:16:28;;;;;;;0.50;0.50;;;18.70;99.90;;;;;;5011523;28;20182;-83
2021/08/15 03:18:53;;;;;;;0.53;0.53;;;18.80;99.90;;;;;;5030723;28;20265;-84
2021/08/15 03:21:19;;;;;;;0.20;0.20;;;18.80;99.90;;;;;;5031086;28;20224;-84
2021/08/15 03:23:44;;;;;;;0.60;0.20;;;18.70;99.90;;;;;;5013343;28;20273;-84
2021/08/15 03:26:11;;;;;;;1.40;1.03;;;18.60;99.90;;;;;;5031372;28;20215;-84
2021/08/15 03:28:37;;;;;;;0.30;0.30;;;18.70;99.90;;;;;;5007441;28;20194;-84
2021/08/15 03:31:03;;;;;;;0.67;0.30;;;18.60;99.90;;;;;;5013652;28;20190;-84
2021/08/15 03:33:28;;;;;;;0.50;0.50;;;18.50;99.90;;;;;;5003668;28;20204;-84
2021/08/15 03:35:54;;;;;;;0.27;0.27;;;18.50;99.90;;;;;;5028110;28;20228;-84
2021/08/15 03:38:21;;;;;;;0.40;0.40;;;18.60;99.90;;;;;;5013222;28;20185;-84
2021/08/15 03:40:46;;;;;;;0.47;0.47;;;18.50;99.90;;;;;;5012556;28;20193;-83
2021/08/15 03:43:12;;;;;;;0.17;0.17;;;18.60;99.90;;;;;;5030662;28;20216;-83
2021/08/15 03:45:39;;;;;;;0.20;0.20;;;18.60;99.90;;;;;;5031062;28;20207;-83
2021/08/15 03:48:06;;;;;;;0.30;0.30;;;18.50;99.90;;;;;;5013577;28;20243;-83
2021/08/15 03:50:31;;;;;;;0.30;0.30;;;18.50;99.90;;;;;;5031224;28;20176;-83
2021/08/15 03:52:57;;;;;;;0.83;0.60;;;18.40;99.90;;;;;;5012961;28;20211;-84
2021/08/15 03:55:22;;;;;;;0.40;0.40;;;18.50;99.90;;;;;;5031313;28;20194;-83
2021/08/15 03:57:48;;;;;;;0.60;0.60;;;18.50;99.90;;;;;;5016060;28;20183;-83
2021/08/15 04:00:14;;;;;;;0.33;0.30;;;18.60;99.90;;;;;;5012968;28;20187;-84
2021/08/15 04:02:40;;;;;;;0.60;0.60;;;18.60;99.90;;;;;;5013715;28;20217;-84
2021/08/15 04:05:06;;;;;;;0.40;0.40;;;18.60;99.90;;;;;;5011020;28;20221;-83
2021/08/15 04:07:31;;;;;;;1.90;0.67;;;18.60;99.90;;;;;;5012427;28;20201;-84
2021/08/15 04:09:57;;;;;;;0.80;0.50;;;18.70;99.90;;;;;;5012132;28;20178;-83
2021/08/15 04:12:22;;;;;;;0.33;0.33;;;18.60;99.90;;;;;;5030195;28;20214;-84
2021/08/15 04:14:48;;;;;;;0.40;0.40;;;18.60;99.90;;;;;;5012972;28;20221;-84
2021/08/15 04:17:16;;;;;;;0.93;0.93;;;18.60;99.90;;;;;;5011953;28;20190;-84
2021/08/15 04:19:42;;;;;;;0.63;0.63;;;18.70;99.90;;;;;;5030935;28;20178;-82
2021/08/15 04:22:08;;;;;;;0.50;0.40;;;18.60;99.90;;;;;;5007965;28;20230;-84
2021/08/15 04:24:33;;;;;;;1.17;0.43;;;18.70;99.90;;;;;;5011259;28;20206;-83
2021/08/15 04:26:59;;;;;;;0.73;0.47;;;18.70;99.90;;;;;;5012396;28;20655;-84
2021/08/15 04:29:24;;;;;;;0.60;0.60;;;18.60;99.90;;;;;;5011738;28;20627;-84
2021/08/15 04:31:50;;;;;;;0.20;0.20;;;18.70;99.90;;;;;;5009438;28;20571;-83
2021/08/15 04:34:15;;;;;;;0.30;0.30;;;18.70;99.90;;;;;;5013170;28;20190;-82
2021/08/15 04:36:41;;;;;;;0.23;0.23;;;18.70;99.90;;;;;;5032282;28;20193;-83
2021/08/15 04:39:06;;;;;;;0.20;0.20;;;18.60;99.90;;;;;;5034599;28;20194;-83
2021/08/15 04:41:32;;;;;;;1.17;0.73;;;18.60;99.90;;;;;;5030933;28;20253;-83
2021/08/15 04:43:58;;;;;;;0.40;0.40;;;18.60;99.90;;;;;;5031620;28;20198;-82
2021/08/15 04:46:23;;;;;;;0.50;0.50;;;18.60;99.90;;;;;;5024750;28;20214;-85
2021/08/15 04:48:49;;;;;;;2.50;0.87;;;18.20;99.90;;;;;;5031578;28;20216;-86
2021/08/15 04:51:14;;;;;;;1.03;0.70;;;17.90;99.90;;;;;;5030383;28;20201;-84
2021/08/15 04:53:40;;;;;;;0.60;0.60;;;17.70;99.90;;;;;;5029028;28;20207;-83
2021/08/15 04:56:05;;;;;;;0.30;0.30;;;17.60;99.90;;;;;;5031321;28;20218;-83
2021/08/15 04:58:31;;;;;;;0.30;0.30;;;17.60;99.90;;;;;;5012933;28;20263;-83
2021/08/15 05:00:56;;;;;;;0.37;0.33;;;17.60;99.90;;;;;;5012839;28;20599;-83
2021/08/15 05:03:22;;;;;;;0.20;0.20;;;17.60;99.90;;;;;;5033894;28;20743;-84
2021/08/15 05:05:47;;;;;;;0.33;0.33;;;17.50;99.90;;;;;;5014705;28;20256;-83
2021/08/15 05:08:13;;;;;;;1.40;0.70;;;17.50;99.90;;;;;;5032684;28;20243;-84
2021/08/15 05:10:43;;;;;;;0.13;0.13;;;17.60;99.90;;;;;;5033270;28;20187;-83
2021/08/15 05:13:09;;;;;;;1.00;0.90;;;17.50;99.90;;;;;;5037528;28;20234;-84
2021/08/15 05:15:34;;;;;;;0.23;0.23;;;17.50;99.90;;;;;;5033592;28;20273;-83
2021/08/15 05:18:02;;;;;;;0.53;0.53;;;17.50;99.90;;;;;;5015349;28;20310;-83
2021/08/15 05:20:28;;;;;;;0.10;0.10;;;17.50;99.90;;;;;;5031553;28;20625;-84
2021/08/15 05:22:54;;;;;;;0.27;0.27;;;17.60;99.90;;;;;;5014012;28;20305;-84
2021/08/15 05:25:19;;;;;;;0.50;0.47;;;17.80;99.90;;;;;;5014223;28;20233;-83
2021/08/15 05:27:45;;;;;;;0.50;0.50;;;18.00;99.90;;;;;;5031187;28;20195;-81
2021/08/15 05:30:10;;;;;;;0.30;0.30;;;18.00;99.90;;;;;;5017990;28;20186;-81
2021/08/15 05:32:36;;;;;;;0.37;0.37;;;18.10;99.90;;;;;;5035793;28;20210;-81
2021/08/15 05:35:02;;;;;;;0.53;0.50;;;18.50;99.90;;;;;;5012914;28;20186;-82
2021/08/15 05:37:28;;;;;;;0.60;0.33;;;18.70;99.90;;;;;;5006576;28;20187;-82
2021/08/15 05:39:53;;;;;;;0.20;0.20;;;19.00;99.90;;;;;;5035468;28;20336;-82
2021/08/15 05:42:19;;;;;;;0.43;0.40;;;19.20;99.90;;;;;;5015110;28;20214;-81
2021/08/15 05:44:45;;;;;;;0.47;0.47;;;19.30;99.90;;;;;;5030178;28;20766;-83
2021/08/15 05:47:10;;;;;;;0.67;0.20;;;19.40;99.90;;;;;;5031044;28;20178;-80
2021/08/15 05:49:36;;;;;;;0.63;0.40;;;19.60;99.90;;;;;;5009273;28;20277;-82
2021/08/15 05:52:02;;;;;;;1.00;0.93;;;19.70;99.90;;;;;;5034125;28;20206;-81
2021/08/15 05:54:27;;;;;;;0.43;0.43;;;19.80;99.90;;;;;;5026951;28;20655;-82
2021/08/15 05:56:53;;;;;;;0.67;0.67;;;19.80;99.90;;;;;;5022313;28;20182;-82
2021/08/15 05:59:18;;;;;;;0.20;0.20;;;19.90;99.90;;;;;;5013129;28;20193;-82
2021/08/15 06:01:44;;;;;;;0.23;0.23;;;20.00;99.90;;;;;;5012993;28;20214;-82
2021/08/15 06:04:10;;;;;;;0.60;0.60;;;20.10;99.90;;;;;;5018960;28;20182;-81
2021/08/15 06:06:35;;;;;;;0.73;0.73;;;20.10;99.90;;;;;;5028824;28;20191;-82
2021/08/15 06:09:01;;;;;;;1.70;0.50;;;20.10;99.90;;;;;;5017179;28;20642;-83
2021/08/15 06:11:26;;;;;;;1.77;0.97;;;20.20;99.90;;;;;;5032084;28;20182;-82
2021/08/15 06:13:53;;;;;;;0.57;0.57;;;20.30;99.90;;;;;;5014735;28;20194;-82
2021/08/15 06:16:19;;;;;;;0.67;0.60;;;20.30;99.90;;;;;;5014093;28;20665;-81
2021/08/15 06:18:44;;;;;;;0.93;0.30;;;20.40;99.90;;;;;;5013565;28;20187;-81
2021/08/15 06:21:10;;;;;;;0.80;0.53;;;20.40;99.90;;;;;;5014708;28;20711;-81
2021/08/15 06:23:36;;;;;;;0.90;0.67;;;20.60;99.90;;;;;;5033567;28;20328;-82
2021/08/15 06:26:02;;;;;;;0.40;0.40;;;20.80;99.90;;;;;;5017277;28;20300;-82
2021/08/15 06:28:28;;;;;;;0.50;0.50;;;20.90;99.90;;;;;;5013497;28;20217;-82
2021/08/15 06:30:53;;;;;;;0.40;0.40;;;21.00;99.90;;;;;;5006927;28;20662;-82
2021/08/15 06:33:19;;;;;;;0.57;0.57;;;21.00;99.90;;;;;;5016621;28;20705;-81
2021/08/15 06:35:44;;;;;;;0.40;0.40;;;21.20;99.90;;;;;;5027740;28;20198;-82
2021/08/15 06:38:10;;;;;;;0.40;0.40;;;21.30;99.90;;;;;;5040433;28;20216;-83
2021/08/15 06:40:35;;;;;;;0.30;0.30;;;21.60;99.90;;;;;;5030440;28;20206;-82
2021/08/15 06:43:19;;;;;;;0.57;0.57;;;21.80;99.90;;;;;;5026515;28;20240;-80
2021/08/15 06:45:45;;;;;;;0.30;0.30;;;22.00;99.90;;;;;;5030092;28;20244;-82
2021/08/15 06:48:10;;;;;;;0.20;0.20;;;22.20;99.90;;;;;;5011373;28;20658;-82
2021/08/15 06:50:37;;;;;;;0.73;0.67;;;22.40;99.90;;;;;;5013821;28;20602;-82
2021/08/15 06:53:03;;;;;;;0.50;0.50;;;22.40;99.90;;;;;;5006477;28;20207;-82
2021/08/15 06:55:29;;;;;;;0.30;0.30;;;22.60;99.90;;;;;;5010859;28;20199;-82
2021/08/15 06:57:55;;;;;;;0.67;0.30;;;22.70;99.90;;;;;;5030987;28;20185;-82
2021/08/15 07:00:21;;;;;;;0.13;0.13;;;22.80;99.90;;;;;;5013211;28;20194;-82
2021/08/15 07:02:48;;;;;;;0.37;0.27;;;23.10;99.90;;;;;;5022365;28;20651;-82
2021/08/15 07:05:15;;;;;;;1.53;0.70;;;23.30;99.90;;;;;;5027170;28;20304;-81
2021/08/15 07:07:41;;;;;;;0.63;0.50;;;23.50;99.90;;;;;;5031200;28;20237;-82
2021/08/15 07:10:08;;;;;;;0.67;0.57;;;23.70;99.90;;;;;;5012212;28;20540;-82
2021/08/15 07:12:34;;;;;;;0.17;0.17;;;23.90;99.90;;;;;;5030914;28;20211;-81
2021/08/15 07:15:01;;;;;;;0.60;0.60;;;24.10;99.90;;;;;;5010775;28;20726;-82
2021/08/15 07:17:27;;;;;;;0.73;0.73;;;24.30;99.90;;;;;;5027204;28;20178;-82
2021/08/15 07:19:53;;;;;;;0.47;0.40;;;24.30;99.90;;;;;;5011445;28;20694;-83
2021/08/15 07:22:19;;;;;;;0.57;0.30;;;24.50;99.90;;;;;;5023635;28;20218;-82
2021/08/15 07:24:44;;;;;;;0.60;0.60;;;24.60;99.90;;;;;;5012067;28;20214;-83
2021/08/15 07:27:10;;;;;;;0.20;0.20;;;24.70;99.90;;;;;;5013839;28;20277;-83
2021/08/15 07:29:36;;;;;;;0.43;0.43;;;24.70;99.90;;;;;;5012605;28;20324;-82
2021/08/15 07:32:01;;;;;;;0.33;0.33;;;24.90;99.90;;;;;;5029261;28;20575;-82
2021/08/15 07:34:27;;;;;;;0.90;0.53;;;25.10;99.90;;;;;;5027874;28;20195;-82
2021/08/15 07:36:53;;;;;;;0.37;0.30;;;25.40;99.90;;;;;;5024635;28;20190;-82
2021/08/15 07:39:18;;;;;;;0.43;0.30;;;25.30;99.90;;;;;;5032456;28;20187;-82
2021/08/15 07:41:44;;;;;;;6.40;0.50;;;25.50;99.90;;;;;;5010804;28;20659;-83
2021/08/15 07:44:10;;;;;;;1.03;0.60;;;25.40;99.90;;;;;;5011396;28;20542;-82
2021/08/15 07:46:35;;;;;;;1.23;0.57;;;25.60;99.90;;;;;;5015205;28;20202;-81
2021/08/15 07:49:01;;;;;;;2.07;1.87;;;25.70;99.90;;;;;;5013890;28;20190;-81
2021/08/15 07:51:29;;;;;;;1.00;0.97;;;25.20;99.90;;;;;;5031949;28;20190;-82
2021/08/15 07:53:56;;;;;;;1.20;1.03;;;25.30;99.90;;;;;;5030594;28;20185;-81
2021/08/15 07:56:22;;;;;;;1.10;0.67;;;24.80;99.90;;;;;;5015072;28;20216;-83
2021/08/15 07:58:47;;;;;;;1.33;0.87;;;25.30;99.90;;;;;;5010067;28;20186;-82
2021/08/15 08:01:13;;;;;;;1.27;0.33;;;25.60;99.90;;;;;;5031990;28;20229;-83
2021/08/15 08:03:39;;;;;;;0.97;0.40;;;25.80;99.90;;;;;;5013252;28;20203;-82
2021/08/15 08:06:05;;;;;;;0.20;0.20;;;25.90;99.90;;;;;;5013077;28;20249;-82
2021/08/15 08:08:30;;;;;;;0.37;0.37;;;26.00;99.90;;;;;;5019917;28;20191;-82
2021/08/15 08:10:56;;;;;;;0.93;0.67;;;26.00;99.90;;;;;;5034068;28;20737;-83
2021/08/15 08:13:23;;;;;;;0.53;0.40;;;25.90;99.90;;;;;;5014931;28;20241;-81
2021/08/15 08:15:49;;;;;;;1.00;0.50;;;26.00;99.90;;;;;;5013955;28;20668;-82
2021/08/15 08:18:14;;;;;;;0.33;0.33;;;26.30;99.90;;;;;;5010005;28;20183;-80
2021/08/15 08:20:40;;;;;;;0.83;0.30;;;26.50;99.90;;;;;;5033624;28;20194;-82
2021/08/15 08:23:13;;;;;;;0.40;0.40;;;26.50;99.90;;;;;;5014898;28;20706;-83
2021/08/15 08:25:40;;;;;;;1.60;0.90;;;26.30;99.90;;;;;;5011350;28;20206;-82
2021/08/15 08:28:06;;;;;;;0.47;0.47;;;26.60;99.90;;;;;;5032706;28;20213;-82
2021/08/15 08:30:32;;;;;;;0.43;0.43;;;26.70;99.90;;;;;;5033190;28;20197;-83
2021/08/15 08:32:57;;;;;;;0.60;0.60;;;26.20;99.90;;;;;;5014137;28;20206;-82
2021/08/15 08:35:23;;;;;;;2.83;1.13;;;26.40;99.90;;;;;;5015229;28;20574;-82
2021/08/15 08:37:49;;;;;;;0.40;0.30;;;26.20;99.90;;;;;;5029276;28;20822;-84
2021/08/15 08:40:17;;;;;;;0.30;0.30;;;26.40;99.90;;;;;;5013863;28;20193;-83
2021/08/15 08:42:46;;;;;;;1.10;0.77;;;26.60;99.90;;;;;;5014324;28;20206;-84
2021/08/15 08:45:17;;;;;;;1.40;0.57;;;26.80;99.90;;;;;;5025778;28;20218;-83
2021/08/15 08:47:43;;;;;;;0.70;0.70;;;26.40;99.90;;;;;;5013768;28;20240;-81
2021/08/15 08:50:09;;;;;;;1.93;0.37;;;26.40;99.90;;;;;;5031743;28;20663;-82
2021/08/15 08:52:34;;;;;;;0.70;0.70;;;26.60;99.90;;;;;;5017558;28;20217;-81
2021/08/15 08:55:02;;;;;;;0.50;0.43;;;26.60;99.90;;;;;;5014549;28;20262;-82
2021/08/15 08:57:28;;;;;;;0.97;0.67;;;26.30;99.90;;;;;;5032091;28;20190;-82
2021/08/15 08:59:54;;;;;;;0.43;0.43;;;26.70;99.90;;;;;;5011567;28;20186;-82
2021/08/15 09:02:20;;;;;;;0.30;0.30;;;27.00;99.90;;;;;;5015535;28;20252;-82
2021/08/15 09:04:46;;;;;;;0.40;0.40;;;27.20;99.90;;;;;;5014150;28;20214;-82
2021/08/15 09:07:20;;;;;;;0.67;0.67;;;27.50;99.90;;;;;;5015845;28;20188;-82
2021/08/15 09:09:57;;;;;;;2.83;0.83;;;27.20;99.90;;;;;;5011702;28;20274;-82
2021/08/15 09:12:40;;;;;;;0.83;0.60;;;26.80;99.90;;;;;;5012478;28;20210;-82
2021/08/15 09:15:16;;;;;;;0.60;0.60;;;27.20;99.90;;;;;;5024367;28;20190;-82
2021/08/15 09:17:43;;;;;;;0.30;0.30;;;27.40;99.90;;;;;;5014473;28;20182;-81
2021/08/15 09:20:11;;;;;;;0.37;0.37;;;27.70;99.90;;;;;;5014462;28;20217;-82
2021/08/15 09:22:37;;;;;;;0.30;0.30;;;27.90;99.90;;;;;;5031416;28;20222;-81
2021/08/15 09:25:11;;;;;;;0.33;0.33;;;28.00;99.90;;;;;;5008231;28;20241;-83
2021/08/15 09:27:38;;;;;;;1.37;0.67;;;28.00;99.90;;;;;;5013974;28;20219;-83
2021/08/15 09:30:08;;;;;;;0.70;0.53;;;28.20;99.90;;;;;;5029789;28;20206;-83
2021/08/15 09:32:35;;;;;;;0.43;0.43;;;28.20;99.90;;;;;;5011033;28;20213;-83
2021/08/15 09:35:02;;;;;;;0.57;0.32;;;28.30;99.90;;;;;;5012563;28;20198;-81
2021/08/15 09:37:32;;;;;;;0.73;0.73;;;28.40;99.90;;;;;;5031971;28;20217;-82
2021/08/15 09:39:58;;;;;;;0.57;0.57;;;28.70;99.90;;;;;;5019975;28;20202;-83
2021/08/15 09:42:44;;;;;;;0.40;0.40;;;28.60;99.90;;;;;;5029995;28;20626;-83
2021/08/15 09:45:14;;;;;;;0.98;0.63;;;28.80;99.90;;;;;;5013952;28;20209;-84
2021/08/15 09:47:41;;;;;;;0.68;0.40;;;28.80;99.90;;;;;;5029641;28;20663;-83
2021/08/15 09:50:24;;;;;;;0.30;0.30;;;29.00;99.90;;;;;;5014495;28;20190;-81
2021/08/15 09:52:50;;;;;;;1.05;0.45;;;28.80;99.90;;;;;;5011511;28;20617;-83
2021/08/15 09:55:16;;;;;;;0.35;0.35;;;28.90;99.90;;;;;;5032872;28;20182;-84
2021/08/15 09:57:42;;;;;;;0.30;0.30;;;28.80;99.90;;;;;;5028963;28;20228;-83
2021/08/15 10:00:20;;;;;;;0.55;0.40;;;28.80;99.90;;;;;;5014741;28;20187;-84
2021/08/15 10:02:47;;;;;;;0.22;0.22;;;28.90;99.90;;;;;;5012041;28;20716;-83
2021/08/15 10:05:12;;;;;;;0.40;0.40;;;28.80;99.90;;;;;;5013320;28;20238;-84
2021/08/15 10:07:39;;;;;;;1.27;0.67;;;29.00;99.90;;;;;;5028464;28;20210;-83
2021/08/15 10:10:05;;;;;;;0.85;0.60;;;28.80;99.90;;;;;;5035151;28;20839;-83
2021/08/15 10:12:32;;;;;;;0.17;0.17;;;28.70;99.90;;;;;;5033195;28;20217;-84
2021/08/15 10:14:58;;;;;;;0.20;0.20;;;28.70;99.90;;;;;;5027034;28;20190;-84
2021/08/15 10:17:28;;;;;;;0.70;0.52;;;28.60;99.90;;;;;;5010911;28;20222;-82
2021/08/15 10:20:01;;;;;;;0.43;0.30;;;28.60;99.90;;;;;;5028853;28;20186;-83
2021/08/15 10:22:29;;;;;;;0.20;0.20;;;28.10;99.90;;;;;;5011324;28;20225;-84
2021/08/15 10:24:57;;;;;;;0.60;0.60;;;28.40;99.90;;;;;;5004813;28;20221;-82
2021/08/15 10:27:41;;;;;;;0.50;0.50;;;28.60;99.90;;;;;;5034757;28;20194;-83
2021/08/15 10:30:13;;;;;;;0.30;0.30;;;29.00;99.90;;;;;;5006812;28;20221;-83
2021/08/15 10:32:58;;;;;;;0.50;0.50;;;29.20;99.90;;;;;;5013099;28;20690;-84
2021/08/15 10:35:35;;;;;;;0.30;0.30;;;29.30;99.90;;;;;;5028936;28;20186;-84
2021/08/15 10:38:28;;;;;;;0.22;0.17;;;29.50;99.90;;;;;;5011489;28;20184;-83
2021/08/15 10:40:54;;;;;;;0.40;0.40;;;29.40;99.90;;;;;;5026236;28;20678;-83
2021/08/15 10:43:23;;;;;;;0.90;0.65;;;29.40;99.90;;;;;;5028994;28;20277;-82
2021/08/15 10:46:12;;;;;;;0.22;0.20;;;29.50;99.90;;;;;;5026580;28;20617;-83
2021/08/15 10:48:59;;;;;;;0.85;0.20;;;29.70;99.90;;;;;;5025921;28;20187;-83
2021/08/15 10:51:51;;;;;;;0.45;0.45;;;30.00;99.90;;;;;;5026115;28;20178;-85
2021/08/15 10:54:28;;;;;;;0.20;0.20;;;30.10;99.90;;;;;;5027382;28;20181;-86
2021/08/15 10:56:57;;;;;;;0.30;0.30;;;30.00;99.90;;;;;;5011810;28;20241;-82
2021/08/15 10:59:40;;;;;;;0.25;0.25;;;30.10;99.90;;;;;;5012493;28;20221;-83
2021/08/15 11:02:14;;;;;;;0.30;0.30;;;30.20;99.90;;;;;;5024374;28;20387;-82
2021/08/15 11:05:00;;;;;;;0.30;0.30;;;30.40;99.90;;;;;;5026293;28;20236;-82
2021/08/15 11:07:40;;;;;;;3.03;1.15;;;30.40;99.90;;;;;;5006909;28;20178;-83
2021/08/15 11:10:11;;;;;;;0.20;0.20;;;30.60;99.90;;;;;;5030449;28;20178;-84
2021/08/15 11:13:14;;;;;;;1.33;0.63;;;30.60;99.90;;;;;;5029293;28;20602;-83
2021/08/15 11:15:40;;;;;;;0.45;0.40;;;30.80;99.90;;;;;;5024012;28;20196;-83
2021/08/15 11:18:13;;;;;;;0.30;0.30;;;31.10;99.90;;;;;;5014213;28;20183;-83
2021/08/15 11:20:47;;;;;;;2.35;0.30;;;31.20;99.90;;;;;;5028929;28;20182;-83
2021/08/15 11:23:21;;;;;;;0.20;0.20;;;31.30;99.90;;;;;;5030789;28;20207;-83
2021/08/15 11:25:47;;;;;;;0.35;0.30;;;30.80;99.90;;;;;;5009756;28;20284;-83
2021/08/15 11:28:17;;;;;;;0.20;0.20;;;30.60;99.90;;;;;;5012159;28;20289;-83
2021/08/15 11:30:44;;;;;;;0.40;0.30;;;30.60;99.90;;;;;;5030140;28;20604;-83
2021/08/15 11:33:13;;;;;;;0.43;0.43;;;30.70;99.90;;;;;;5009407;28;20563;-83
2021/08/15 11:35:44;;;;;;;0.35;0.35;;;30.80;99.90;;;;;;5024209;28;20587;-83
2021/08/15 11:38:12;;;;;;;0.55;0.55;;;31.00;99.90;;;;;;5029623;28;20174;-83
2021/08/15 11:40:51;;;;;;;0.60;0.60;;;30.90;99.90;;;;;;5012720;28;20213;-83
2021/08/15 11:43:19;;;;;;;1.55;0.50;;;30.80;99.90;;;;;;5022958;28;20214;-83
2021/08/15 11:45:48;;;;;;;2.40;0.57;;;30.70;99.90;;;;;;5045575;28;20210;-83
2021/08/15 11:48:19;;;;;;;0.40;0.40;;;30.70;99.90;;;;;;5033313;28;20192;-83
2021/08/15 11:50:48;;;;;;;0.43;0.30;;;30.80;99.90;;;;;;5034509;28;20642;-83
2021/08/15 11:53:22;;;;;;;0.28;0.28;;;30.60;99.90;;;;;;5033300;28;20585;-83
2021/08/15 11:55:48;;;;;;;0.47;0.47;;;30.70;99.90;;;;;;5016832;28;20182;-82
2021/08/15 11:58:15;;;;;;;1.45;0.45;;;30.60;99.90;;;;;;5033236;28;20670;-83
2021/08/15 12:00:40;;;;;;;0.35;0.35;;;30.70;99.90;;;;;;5017795;28;20182;-83
2021/08/15 12:03:14;;;;;;;0.63;0.63;;;30.70;99.90;;;;;;5035655;28;20210;-83
2021/08/15 12:05:51;;;;;;;1.30;1.20;;;30.70;99.90;;;;;;5035153;28;20220;-83
2021/08/15 12:08:31;;;;;;;0.40;0.40;;;30.90;99.90;;;;;;5015157;28;20186;-83
2021/08/15 12:10:56;;;;;;;0.20;0.20;;;31.10;99.90;;;;;;5030032;28;20220;-83
2021/08/15 12:13:38;;;;;;;0.47;0.30;;;31.20;99.90;;;;;;5030532;28;20213;-83
2021/08/15 12:16:03;;;;;;;0.60;0.40;;;31.00;99.90;;;;;;5032384;28;20178;-85
2021/08/15 12:18:36;;;;;;;0.65;0.38;;;31.00;99.90;;;;;;5024683;28;20549;-84
2021/08/15 12:21:15;;;;;;;1.60;0.50;;;31.00;99.90;;;;;;5020127;28;20186;-83
2021/08/15 12:24:04;;;;;;;0.40;0.40;;;31.10;99.90;;;;;;5016097;28;20202;-84
2021/08/15 12:26:33;;;;;;;1.20;0.68;;;31.30;99.90;;;;;;5015096;28;20210;-86
2021/08/15 12:29:01;;;;;;;0.20;0.20;;;31.30;99.90;;;;;;5029711;28;20185;-82
2021/08/15 12:31:29;;;;;;;1.42;0.50;;;31.50;99.90;;;;;;5034319;28;20213;-82
2021/08/15 12:34:16;;;;;;;0.57;0.40;;;31.50;99.90;;;;;;5030612;28;20182;-83
2021/08/15 12:36:50;;;;;;;0.30;0.30;;;31.60;99.90;;;;;;5023664;28;20678;-83
2021/08/15 12:39:18;;;;;;;0.40;0.30;;;32.10;99.90;;;;;;5014796;28;20192;-83
2021/08/15 12:41:54;;;;;;;0.20;0.20;;;32.30;99.90;;;;;;5008524;28;20229;-83
2021/08/15 12:44:23;;;;;;;0.40;0.40;;;32.40;99.90;;;;;;5030889;28;20178;-83
2021/08/15 12:46:59;;;;;;;0.20;0.20;;;32.30;99.90;;;;;;5013790;28;20206;-83
2021/08/15 12:49:34;;;;;;;0.10;0.10;;;32.50;99.90;;;;;;5010057;28;20187;-83
2021/08/15 12:52:21;;;;;;;0.13;0.13;;;32.40;99.90;;;;;;5011016;28;20209;-83